Time;durP1;ratioP1;P1;durP2;ratioP2;P2;SDS_P1;SDS_P2;PMS_P1;PMS_P2;Temp;Humidity;BMP_temperature;BMP_pressure;BME280_temperature;BME280_humidity;BME280_pressure;Samples;Min_cycle;Max_cycle;Signal;HPM_P1;HPM_P2
2023/08/02 17:28:37;;;;;;;;;2.67;0.00;;;;;21.75;77.65;99372.63;5134799;27;45219;-75
2023/08/02 17:31:40;;;;;;;;;1.00;1.00;;;;;21.80;80.35;99382.81;5116682;27;45288;-76
2023/08/02 17:34:06;;;;;;;;;2.00;0.00;;;;;21.84;79.12;99370.69;5099344;27;45520;-75
2023/08/02 17:36:33;;;;;;;;;0.00;0.00;;;;;21.90;81.43;99396.09;5083703;27;45332;-76
2023/08/02 17:39:00;;;;;;;;;0.00;0.00;;;;;21.89;79.51;99392.56;5094711;27;45348;-77
2023/08/02 17:41:26;;;;;;;;;1.33;1.33;;;;;21.88;78.97;99384.63;5093301;27;45662;-76
2023/08/02 17:43:52;;;;;;;;;1.33;0.67;;;;;21.90;77.96;99394.25;5108494;27;45290;-76
2023/08/02 17:46:21;;;;;;;;;2.00;1.00;;;;;21.86;77.39;99389.38;5086401;27;45482;-76
2023/08/02 17:48:46;;;;;;;;;3.00;1.00;;;;;21.85;81.05;99385.00;5099452;27;45341;-76
2023/08/02 17:51:12;;;;;;;;;0.00;0.00;;;;;21.86;78.17;99408.22;5086917;27;45262;-75
2023/08/02 17:53:37;;;;;;;;;0.00;0.00;;;;;21.79;80.19;99383.88;5099834;27;45216;-76
2023/08/02 17:56:04;;;;;;;;;0.67;0.67;;;;;21.85;80.09;99393.06;5111380;27;45216;-76
2023/08/02 17:58:30;;;;;;;;;1.67;0.00;;;;;21.89;78.77;99387.16;5086567;27;45393;-77
2023/08/02 18:01:13;;;;;;;;;2.00;0.33;;;;;22.02;79.05;99390.09;5099691;27;46209;-76
2023/08/02 18:03:40;;;;;;;;;0.67;0.67;;;;;22.22;77.23;99395.84;5087343;27;45290;-76
2023/08/02 18:06:06;;;;;;;;;1.67;0.00;;;;;22.21;78.72;99389.63;5093926;27;45582;-76
2023/08/02 18:08:31;;;;;;;;;2.00;1.00;;;;;22.24;77.64;99399.22;5110104;27;45404;-75
2023/08/02 18:10:58;;;;;;;;;4.00;1.00;;;;;22.16;77.34;99394.72;5090409;27;47358;-74
2023/08/02 18:13:24;;;;;;;;;2.67;1.00;;;;;22.08;78.06;99399.34;5106190;27;45464;-75
2023/08/02 18:15:49;;;;;;;;;0.00;0.00;;;;;21.95;74.68;99404.47;5109096;27;45305;-75
2023/08/02 18:18:14;;;;;;;;;2.00;0.00;;;;;21.93;75.70;99407.34;5078451;27;45351;-74
2023/08/02 18:20:39;;;;;;;;;2.00;1.00;;;;;21.82;75.61;99422.00;5094516;27;46111;-74
2023/08/02 18:23:05;;;;;;;;;1.00;1.00;;;;;21.80;77.22;99393.59;5077454;27;45454;-74
2023/08/02 18:25:35;;;;;;;;;1.00;1.00;;;;;21.77;77.39;99397.50;5077279;27;45299;-74
2023/08/02 18:28:01;;;;;;;;;2.00;0.67;;;;;21.69;77.48;99388.63;5075162;27;45352;-74
2023/08/02 18:30:26;;;;;;;;;1.00;1.00;;;;;21.76;77.19;99409.25;5086371;27;45834;-74
2023/08/02 18:32:53;;;;;;;;;1.00;0.00;;;;;21.51;76.12;99383.50;5095341;27;45522;-74
2023/08/02 18:35:21;;;;;;;;;1.00;0.00;;;;;21.68;78.02;99440.78;5083907;27;45332;-74
2023/08/02 18:37:46;;;;;;;;;2.67;0.00;;;;;21.62;76.65;99441.47;5099235;27;45437;-75
2023/08/02 18:40:12;;;;;;;;;1.00;0.00;;;;;21.64;78.48;99445.66;5083973;27;46103;-74
2023/08/02 18:42:37;;;;;;;;;0.67;0.00;;;;;21.55;78.32;99419.81;5070615;27;45282;-78
2023/08/02 18:45:03;;;;;;;;;2.00;0.00;;;;;21.59;76.96;99436.47;5080071;27;45638;-74
2023/08/02 18:47:28;;;;;;;;;1.00;0.00;;;;;21.58;76.27;99432.09;5069085;27;45519;-74
2023/08/02 18:49:54;;;;;;;;;1.33;0.00;;;;;21.55;75.19;99435.97;5071729;27;54926;-74
2023/08/02 18:52:26;;;;;;;;;0.00;0.00;;;;;21.59;77.30;99444.53;5082369;27;45544;-75
2023/08/02 18:54:54;;;;;;;;;0.00;0.00;;;;;21.49;76.38;99427.75;5061677;27;45280;-75
2023/08/02 18:57:21;;;;;;;;;0.33;0.00;;;;;21.50;76.77;99446.41;5077086;27;45500;-75
2023/08/02 18:59:46;;;;;;;;;1.00;1.00;;;;;21.44;75.19;99444.41;5075009;27;45535;-75
2023/08/02 19:02:13;;;;;;;;;0.33;0.33;;;;;21.45;78.59;99445.25;5076149;27;45367;-75
2023/08/02 19:04:39;;;;;;;;;2.00;0.00;;;;;21.43;78.41;99464.28;5079141;27;45536;-75
2023/08/02 19:07:04;;;;;;;;;4.00;1.00;;;;;21.36;77.16;99451.69;5072708;27;45446;-74
2023/08/02 19:09:30;;;;;;;;;0.00;0.00;;;;;21.31;76.09;99473.72;5080266;27;46138;-75
2023/08/02 19:11:56;;;;;;;;;0.33;0.33;;;;;21.29;77.52;99463.16;5081059;27;45362;-74
2023/08/02 19:14:21;;;;;;;;;0.00;0.00;;;;;21.23;77.53;99455.78;5079618;27;45321;-75
2023/08/02 19:16:47;;;;;;;;;0.67;0.67;;;;;21.28;76.28;99479.44;5080231;27;45369;-75
2023/08/02 19:19:28;;;;;;;;;0.00;0.00;;;;;21.22;78.71;99475.59;5081812;27;45275;-74
2023/08/02 19:21:57;;;;;;;;;2.00;1.00;;;;;21.12;77.96;99506.38;5075705;27;45617;-75
2023/08/02 19:24:30;;;;;;;;;1.00;1.00;;;;;21.09;81.47;99488.75;5094489;27;45344;-74
2023/08/02 19:27:00;;;;;;;;;0.00;0.00;;;;;21.05;83.62;99516.09;5078219;27;45383;-75
2023/08/02 19:29:26;;;;;;;;;0.00;0.00;;;;;21.02;86.67;99525.34;5079967;27;46093;-74
2023/08/02 19:31:51;;;;;;;;;3.00;1.00;;;;;20.88;86.97;99534.09;5093557;27;45364;-74
2023/08/02 19:34:17;;;;;;;;;1.67;1.00;;;;;20.79;86.38;99538.63;5071271;27;45529;-75
2023/08/02 19:36:45;;;;;;;;;0.00;0.00;;;;;20.75;86.76;99528.38;5069199;27;45621;-74
2023/08/02 19:39:11;;;;;;;;;1.00;0.33;;;;;20.64;85.21;99520.66;5072412;27;45440;-74
2023/08/02 19:41:37;;;;;;;;;0.00;0.00;;;;;20.61;84.03;99542.50;5072888;27;45299;-74
2023/08/02 19:44:03;;;;;;;;;1.00;1.00;;;;;20.65;85.31;99549.19;5071148;27;45301;-75
2023/08/02 19:46:28;;;;;;;;;0.00;0.00;;;;;20.60;83.39;99535.44;5084654;27;45287;-73
2023/08/02 19:48:54;;;;;;;;;0.00;0.00;;;;;20.60;83.11;99543.50;5087219;27;45573;-74
2023/08/02 19:51:20;;;;;;;;;0.00;0.00;;;;;20.59;81.78;99534.59;5078932;27;45300;-74
2023/08/02 19:53:45;;;;;;;;;1.00;0.00;;;;;20.59;80.67;99539.13;5068801;27;45259;-74
2023/08/02 19:56:18;;;;;;;;;3.00;1.00;;;;;20.54;80.69;99545.00;5109670;27;45603;-74
2023/08/02 19:58:43;;;;;;;;;0.67;0.00;;;;;20.56;80.11;99552.88;5063821;27;46177;-74
2023/08/02 20:01:10;;;;;;;;;2.00;0.67;;;;;20.56;80.79;99539.44;5076224;27;45792;-75
2023/08/02 20:03:35;;;;;;;;;2.00;1.00;;;;;20.58;80.41;99537.47;5080936;27;45513;-75
2023/08/02 20:06:02;;;;;;;;;0.00;0.00;;;;;20.60;79.06;99549.72;5080832;27;45384;-74
2023/08/02 20:08:32;;;;;;;;;0.00;0.00;;;;;20.66;80.15;99559.78;5067692;27;45453;-74
2023/08/02 20:11:02;;;;;;;;;1.00;1.00;;;;;20.66;79.38;99570.53;5080258;27;45413;-74
2023/08/02 20:13:38;;;;;;;;;0.00;0.00;;;;;20.69;79.60;99574.72;5080978;27;45284;-74
2023/08/02 20:16:12;;;;;;;;;0.00;0.00;;;;;20.70;79.65;99571.03;5086671;27;45422;-74
2023/08/02 20:18:38;;;;;;;;;0.00;0.00;;;;;20.62;80.35;99588.00;5070718;28;45434;-74
2023/08/02 20:21:07;;;;;;;;;1.67;1.00;;;;;20.65;79.90;99576.06;5070718;27;45614;-74
2023/08/02 20:23:35;;;;;;;;;0.00;0.00;;;;;20.69;80.62;99590.84;5069804;27;45341;-74
2023/08/02 20:26:00;;;;;;;;;0.67;0.67;;;;;20.60;81.65;99581.09;5084413;27;46134;-74
2023/08/02 20:28:25;;;;;;;;;3.00;0.00;;;;;20.67;82.22;99596.41;5079519;27;51358;-75
2023/08/02 20:30:51;;;;;;;;;0.00;0.00;;;;;20.63;81.06;99613.84;5066317;28;45499;-75
2023/08/02 20:33:19;;;;;;;;;1.00;0.00;;;;;20.57;83.50;99594.88;5078174;28;45494;-74
2023/08/02 20:35:45;;;;;;;;;0.00;0.00;;;;;20.57;83.43;99602.94;5074467;27;45334;-75
2023/08/02 20:38:17;;;;;;;;;2.00;0.00;;;;;20.51;83.43;99625.09;5076429;27;45371;-74
2023/08/02 20:40:44;;;;;;;;;0.00;0.00;;;;;20.49;83.63;99616.34;5069945;28;45366;-74
2023/08/02 20:43:12;;;;;;;;;4.00;0.00;;;;;20.36;83.67;99603.38;5079773;27;45280;-75
2023/08/02 20:45:42;;;;;;;;;0.00;0.00;;;;;20.33;84.44;99610.91;5079512;27;45502;-74
2023/08/02 20:48:10;;;;;;;;;0.00;0.00;;;;;20.39;83.44;99647.88;5077089;27;45367;-74
2023/08/02 20:50:40;;;;;;;;;0.00;0.00;;;;;20.31;83.07;99646.00;5095524;27;45509;-74
2023/08/02 20:53:11;;;;;;;;;2.00;0.33;;;;;20.26;82.94;99634.88;5076063;27;45461;-75
2023/08/02 20:55:37;;;;;;;;;1.00;0.00;;;;;20.31;82.92;99637.09;5073811;28;45603;-75
2023/08/02 20:58:05;;;;;;;;;0.00;0.00;;;;;20.30;82.52;99665.81;5075809;28;45429;-75
2023/08/02 21:00:31;;;;;;;;;0.00;0.00;;;;;20.28;83.16;99662.44;5077375;27;45560;-75
2023/08/02 21:02:56;;;;;;;;;1.00;0.00;;;;;20.24;82.74;99658.38;5072325;27;45503;-75
2023/08/02 21:05:21;;;;;;;;;0.00;0.00;;;;;20.21;83.78;99670.28;5078757;27;45418;-73
2023/08/02 21:07:47;;;;;;;;;1.67;0.00;;;;;20.06;86.26;99658.44;5076164;27;46236;-74
2023/08/02 21:10:12;;;;;;;;;0.33;0.00;;;;;20.07;88.51;99691.50;5076949;27;45309;-74
2023/08/02 21:12:37;;;;;;;;;0.33;0.00;;;;;20.02;88.40;99680.41;5066043;27;45592;-74
2023/08/02 21:15:08;;;;;;;;;0.67;0.00;;;;;19.96;88.93;99691.78;5076666;27;52564;-72
2023/08/02 21:17:34;;;;;;;;;0.00;0.00;;;;;19.90;90.30;99701.28;5075577;27;45462;-72
2023/08/02 21:20:23;;;;;;;;;0.00;0.00;;;;;19.87;89.98;99714.19;5076802;27;45322;-73
2023/08/02 21:22:48;;;;;;;;;2.00;0.00;;;;;19.76;92.00;99716.13;5089512;27;45502;-74
2023/08/02 21:25:14;;;;;;;;;0.00;0.00;;;;;19.60;92.55;99693.75;5078322;27;47500;-74
2023/08/02 21:27:39;;;;;;;;;0.00;0.00;;;;;19.63;92.90;99725.63;5076881;27;45461;-73
2023/08/02 21:30:08;;;;;;;;;0.00;0.00;;;;;19.55;93.50;99704.94;5066255;27;45600;-74
2023/08/02 21:32:35;;;;;;;;;0.00;0.00;;;;;19.62;93.52;99716.72;5089993;27;45480;-74
2023/08/02 21:35:00;;;;;;;;;1.00;0.00;;;;;19.63;93.17;99722.94;5076601;27;45390;-74
2023/08/02 21:37:26;;;;;;;;;0.00;0.00;;;;;19.48;92.62;99700.31;5081940;27;53633;-73
2023/08/02 21:39:51;;;;;;;;;0.00;0.00;;;;;19.60;92.60;99732.09;5074963;27;45446;-73
2023/08/02 21:42:22;;;;;;;;;0.00;0.00;;;;;19.59;92.28;99738.50;5067769;27;45509;-73
2023/08/02 21:44:47;;;;;;;;;0.67;0.00;;;;;19.48;92.30;99716.41;5073211;27;45441;-74
2023/08/02 21:47:14;;;;;;;;;0.33;0.00;;;;;19.56;91.04;99738.81;5067380;27;57289;-74
2023/08/02 21:49:40;;;;;;;;;0.00;0.00;;;;;19.58;91.45;99738.63;5079849;27;45318;-73
2023/08/02 21:52:11;;;;;;;;;0.00;0.00;;;;;19.59;93.20;99740.34;5073322;28;45548;-74
2023/08/02 21:54:38;;;;;;;;;0.00;0.00;;;;;19.51;91.20;99732.19;5083138;27;45592;-73
2023/08/02 21:57:04;;;;;;;;;2.33;0.33;;;;;19.46;91.29;99723.78;5088977;27;46430;-73
2023/08/02 21:59:29;;;;;;;;;0.33;0.33;;;;;19.49;91.62;99744.94;5076155;27;45430;-74
2023/08/02 22:01:55;;;;;;;;;0.00;0.00;;;;;19.56;91.06;99756.72;5074653;27;45530;-73
2023/08/02 22:04:24;;;;;;;;;0.67;0.00;;;;;19.54;90.80;99759.56;5077517;27;45734;-73
2023/08/02 22:06:50;;;;;;;;;0.00;0.00;;;;;19.50;90.89;99754.69;5083783;27;45650;-73
2023/08/02 22:09:15;;;;;;;;;0.00;0.00;;;;;19.51;90.63;99756.34;5072051;27;47228;-73
2023/08/02 22:11:44;;;;;;;;;0.00;0.00;;;;;19.46;90.49;99759.50;5066092;27;45476;-74
2023/08/02 22:14:11;;;;;;;;;0.00;0.00;;;;;19.48;89.95;99754.81;5068728;27;45296;-73
2023/08/02 22:16:37;;;;;;;;;4.67;0.00;;;;;19.51;89.95;99772.44;5071508;27;45538;-74
2023/08/02 22:19:02;;;;;;;;;0.67;0.00;;;;;19.52;89.67;99760.72;5079189;27;45330;-73
2023/08/02 22:21:28;;;;;;;;;0.00;0.00;;;;;19.48;89.76;99764.69;5075433;27;45389;-73
2023/08/02 22:23:53;;;;;;;;;0.00;0.00;;;;;19.44;90.64;99764.16;5070657;27;45358;-73
2023/08/02 22:26:19;;;;;;;;;0.00;0.00;;;;;19.45;91.17;99771.22;5072796;27;46608;-73
2023/08/02 22:28:44;;;;;;;;;0.33;0.00;;;;;19.49;91.44;99786.00;5068296;27;45363;-72
2023/08/02 22:31:10;;;;;;;;;0.00;0.00;;;;;19.44;92.72;99776.72;5078116;27;45431;-73
2023/08/02 22:33:36;;;;;;;;;0.67;0.00;;;;;19.46;92.97;99790.84;5076674;27;45466;-73
2023/08/02 22:36:02;;;;;;;;;1.67;0.00;;;;;19.38;93.47;99775.47;5069886;27;45319;-72
2023/08/02 22:38:27;;;;;;;;;0.50;0.50;;;;;19.45;94.06;99789.16;5062102;27;45442;-73
2023/08/02 22:40:52;;;;;;;;;1.00;0.00;;;;;19.41;93.92;99788.59;5089359;27;45543;-73
2023/08/02 22:43:18;;;;;;;;;2.33;1.00;;;;;19.35;94.20;99788.34;5069797;27;45423;-73
2023/08/02 22:45:43;;;;;;;;;0.00;0.00;;;;;19.32;95.77;99784.13;5082330;27;45501;-73
2023/08/02 22:48:08;;;;;;;;;0.67;0.67;;;;;19.32;94.24;99810.09;5069233;27;45359;-73
2023/08/02 22:50:33;;;;;;;;;0.67;0.67;;;;;19.26;94.92;99803.50;5069231;27;45372;-73
2023/08/02 22:52:59;;;;;;;;;0.33;0.33;;;;;19.29;94.37;99805.88;5068102;27;47671;-73
2023/08/02 22:55:24;;;;;;;;;4.33;0.00;;;;;19.23;94.71;99793.94;5067228;27;51328;-73
2023/08/02 22:57:49;;;;;;;;;1.33;1.00;;;;;19.21;93.80;99801.28;5097713;27;45413;-73
2023/08/02 23:00:22;;;;;;;;;1.67;0.33;;;;;19.24;93.92;99810.84;5068016;28;45292;-73
2023/08/02 23:02:47;;;;;;;;;0.67;0.67;;;;;19.23;94.35;99812.72;5080408;27;45367;-73
2023/08/02 23:05:22;;;;;;;;;0.00;0.00;;;;;19.22;93.62;99808.34;5060848;28;49062;-73
2023/08/02 23:07:49;;;;;;;;;0.33;0.00;;;;;19.15;94.04;99807.25;5094204;27;45320;-73
2023/08/02 23:10:26;;;;;;;;;0.00;0.00;;;;;19.20;93.10;99823.75;5066436;28;46869;-73
2023/08/02 23:12:53;;;;;;;;;1.33;0.00;;;;;19.18;93.18;99822.19;5078685;27;45465;-73
2023/08/02 23:15:20;;;;;;;;;1.33;0.33;;;;;19.19;92.85;99821.19;5071800;28;46460;-73
2023/08/02 23:17:47;;;;;;;;;6.33;2.00;;;;;19.20;92.50;99823.75;5070779;27;45307;-72
2023/08/02 23:20:37;;;;;;;;;1.67;0.00;;;;;19.20;93.54;99831.78;5080941;27;45375;-73
2023/08/02 23:23:09;;;;;;;;;2.33;1.33;;;;;19.22;92.32;99827.09;5077719;27;45381;-73
2023/08/02 23:25:34;;;;;;;;;2.33;1.00;;;;;19.18;92.15;99820.34;5072101;28;46461;-73
2023/08/02 23:27:59;;;;;;;;;0.33;0.33;;;;;19.18;92.27;99823.03;5075804;28;49632;-73
2023/08/02 23:30:27;;;;;;;;;3.00;1.33;;;;;19.18;91.32;99822.19;5075331;27;45259;-73
2023/08/02 23:32:53;;;;;;;;;1.67;1.00;;;;;19.20;91.96;99821.06;5078933;27;45579;-73
2023/08/02 23:35:18;;;;;;;;;0.33;0.33;;;;;19.21;92.49;99832.59;5081262;27;46389;-72
2023/08/02 23:37:43;;;;;;;;;1.33;0.67;;;;;19.06;90.94;99823.41;5105442;27;45418;-73
2023/08/02 23:40:09;;;;;;;;;1.67;0.67;;;;;19.19;91.29;99827.41;5064833;27;45287;-73
2023/08/02 23:42:34;;;;;;;;;0.67;0.67;;;;;19.19;91.84;99826.56;5063801;27;45363;-73
2023/08/02 23:45:00;;;;;;;;;2.67;1.33;;;;;19.20;90.12;99834.47;5067192;27;50676;-73
2023/08/02 23:47:25;;;;;;;;;1.00;1.00;;;;;19.17;91.26;99829.38;5068602;27;47150;-73
2023/08/02 23:49:50;;;;;;;;;0.67;0.67;;;;;19.16;90.94;99829.53;5081570;27;45240;-72
2023/08/02 23:52:16;;;;;;;;;2.33;0.67;;;;;19.15;90.74;99830.53;5081121;27;46366;-72
2023/08/02 23:54:41;;;;;;;;;4.00;1.33;;;;;19.16;90.22;99830.38;5080917;27;46129;-73
2023/08/02 23:57:06;;;;;;;;;5.00;1.67;;;;;19.11;89.14;99821.09;5076553;27;46617;-72
2023/08/02 23:59:31;;;;;;;;;1.33;1.33;;;;;19.10;89.69;99822.94;5075917;27;45383;-72
